sensor_id;sensor_type;location;lat;lon;timestamp;pressure;altitude;pressure_sealevel;temperature;humidity
21956;BME280;11142;49.930;8.606;2023-04-10T00:02:30;100759.81;;;7.15;100.00
21956;BME280;11142;49.930;8.606;2023-04-10T00:04:58;100768.03;;;7.03;100.00
21956;BME280;11142;49.930;8.606;2023-04-10T00:07:27;100764.50;;;7.06;100.00
21956;BME280;11142;49.930;8.606;2023-04-10T00:09:55;100772.28;;;7.04;100.00
21956;BME280;11142;49.930;8.606;2023-04-10T00:12:23;100773.19;;;6.80;100.00
21956;BME280;11142;49.930;8.606;2023-04-10T00:14:52;100765.16;;;6.66;100.00
21956;BME280;11142;49.930;8.606;2023-04-10T00:17:23;100772.16;;;6.62;100.00
21956;BME280;11142;49.930;8.606;2023-04-10T00:19:51;100768.00;;;6.58;100.00
21956;BME280;11142;49.930;8.606;2023-04-10T00:22:19;100774.53;;;6.67;100.00
21956;BME280;11142;49.930;8.606;2023-04-10T00:24:47;100771.72;;;6.73;100.00
21956;BME280;11142;49.930;8.606;2023-04-10T00:27:17;100771.97;;;6.67;100.00
21956;BME280;11142;49.930;8.606;2023-04-10T00:29:45;100772.81;;;6.67;100.00
21956;BME280;11142;49.930;8.606;2023-04-10T00:32:13;100775.16;;;6.73;100.00
21956;BME280;11142;49.930;8.606;2023-04-10T00:34:45;100771.72;;;6.73;100.00
21956;BME280;11142;49.930;8.606;2023-04-10T00:37:13;100775.72;;;6.58;100.00
21956;BME280;11142;49.930;8.606;2023-04-10T00:39:41;100769.94;;;6.52;100.00
21956;BME280;11142;49.930;8.606;2023-04-10T00:42:10;100771.16;;;6.41;100.00
21956;BME280;11142;49.930;8.606;2023-04-10T00:44:39;100764.38;;;6.39;100.00
21956;BME280;11142;49.930;8.606;2023-04-10T00:47:10;100766.28;;;6.34;100.00
21956;BME280;11142;49.930;8.606;2023-04-10T00:49:39;100769.50;;;6.40;100.00
21956;BME280;11142;49.930;8.606;2023-04-10T00:52:08;100764.97;;;6.22;100.00
21956;BME280;11142;49.930;8.606;2023-04-10T00:54:40;100756.66;;;6.14;100.00
21956;BME280;11142;49.930;8.606;2023-04-10T00:57:08;100758.63;;;6.08;100.00
21956;BME280;11142;49.930;8.606;2023-04-10T00:59:37;100757.19;;;5.99;100.00
21956;BME280;11142;49.930;8.606;2023-04-10T01:02:05;100750.56;;;5.92;100.00
21956;BME280;11142;49.930;8.606;2023-04-10T01:04:34;100754.91;;;5.90;100.00
21956;BME280;11142;49.930;8.606;2023-04-10T01:07:05;100761.47;;;5.74;100.00
21956;BME280;11142;49.930;8.606;2023-04-10T01:09:43;100761.16;;;5.83;100.00
21956;BME280;11142;49.930;8.606;2023-04-10T01:12:19;100767.88;;;5.87;100.00
21956;BME280;11142;49.930;8.606;2023-04-10T01:14:57;100768.75;;;5.87;100.00
21956;BME280;11142;49.930;8.606;2023-04-10T01:17:30;100765.19;;;5.92;100.00
21956;BME280;11142;49.930;8.606;2023-04-10T01:20:03;100759.47;;;5.82;100.00
21956;BME280;11142;49.930;8.606;2023-04-10T01:22:34;100772.63;;;5.73;100.00
21956;BME280;11142;49.930;8.606;2023-04-10T01:25:22;100766.63;;;5.46;100.00
21956;BME280;11142;49.930;8.606;2023-04-10T01:28:00;100761.63;;;5.42;100.00
21956;BME280;11142;49.930;8.606;2023-04-10T01:30:34;100762.19;;;5.51;100.00
21956;BME280;11142;49.930;8.606;2023-04-10T01:33:04;100759.31;;;5.60;100.00
21956;BME280;11142;49.930;8.606;2023-04-10T01:35:33;100757.66;;;5.31;100.00
21956;BME280;11142;49.930;8.606;2023-04-10T01:38:01;100772.00;;;5.11;100.00
21956;BME280;11142;49.930;8.606;2023-04-10T01:40:32;100768.19;;;5.24;100.00
21956;BME280;11142;49.930;8.606;2023-04-10T01:43:02;100771.34;;;5.60;100.00
21956;BME280;11142;49.930;8.606;2023-04-10T01:45:43;100770.94;;;5.72;100.00
21956;BME280;11142;49.930;8.606;2023-04-10T01:48:12;100759.03;;;5.69;100.00
21956;BME280;11142;49.930;8.606;2023-04-10T01:50:42;100759.53;;;5.54;100.00
21956;BME280;11142;49.930;8.606;2023-04-10T01:53:10;100749.63;;;5.42;100.00
21956;BME280;11142;49.930;8.606;2023-04-10T01:55:41;100753.19;;;5.36;100.00
21956;BME280;11142;49.930;8.606;2023-04-10T01:58:11;100745.78;;;5.27;100.00
21956;BME280;11142;49.930;8.606;2023-04-10T02:00:40;100742.44;;;5.25;100.00
21956;BME280;11142;49.930;8.606;2023-04-10T02:03:12;100736.47;;;5.23;100.00
21956;BME280;11142;49.930;8.606;2023-04-10T02:05:45;100735.00;;;5.16;100.00
21956;BME280;11142;49.930;8.606;2023-04-10T02:08:17;100729.09;;;5.13;100.00
21956;BME280;11142;49.930;8.606;2023-04-10T02:10:49;100734.91;;;5.19;100.00
21956;BME280;11142;49.930;8.606;2023-04-10T02:13:19;100728.38;;;5.08;100.00
21956;BME280;11142;49.930;8.606;2023-04-10T02:15:49;100727.16;;;4.92;100.00
21956;BME280;11142;49.930;8.606;2023-04-10T02:18:19;100719.25;;;4.70;100.00
21956;BME280;11142;49.930;8.606;2023-04-10T02:20:49;100717.41;;;4.75;100.00
21956;BME280;11142;49.930;8.606;2023-04-10T02:23:18;100709.53;;;4.79;100.00
21956;BME280;11142;49.930;8.606;2023-04-10T02:25:46;100715.25;;;4.89;100.00
21956;BME280;11142;49.930;8.606;2023-04-10T02:28:14;100714.97;;;4.98;100.00
21956;BME280;11142;49.930;8.606;2023-04-10T02:30:42;100716.03;;;5.19;100.00
21956;BME280;11142;49.930;8.606;2023-04-10T02:33:11;100711.44;;;5.28;100.00
21956;BME280;11142;49.930;8.606;2023-04-10T02:35:43;100715.41;;;5.39;100.00
21956;BME280;11142;49.930;8.606;2023-04-10T02:38:11;100710.22;;;5.40;100.00
21956;BME280;11142;49.930;8.606;2023-04-10T02:40:42;100710.53;;;5.56;100.00
21956;BME280;11142;49.930;8.606;2023-04-10T02:43:13;100705.25;;;5.60;100.00
21956;BME280;11142;49.930;8.606;2023-04-10T02:45:41;100714.84;;;5.55;100.00
21956;BME280;11142;49.930;8.606;2023-04-10T02:48:13;100717.09;;;5.66;100.00
21956;BME280;11142;49.930;8.606;2023-04-10T02:50:42;100719.50;;;5.70;100.00
21956;BME280;11142;49.930;8.606;2023-04-10T02:53:12;100716.53;;;5.56;100.00
21956;BME280;11142;49.930;8.606;2023-04-10T02:55:41;100713.63;;;5.41;100.00
21956;BME280;11142;49.930;8.606;2023-04-10T02:58:09;100713.41;;;5.48;100.00
21956;BME280;11142;49.930;8.606;2023-04-10T03:00:40;100725.16;;;5.55;100.00
21956;BME280;11142;49.930;8.606;2023-04-10T03:03:18;100711.50;;;5.53;100.00
21956;BME280;11142;49.930;8.606;2023-04-10T03:05:52;100707.13;;;5.55;100.00
21956;BME280;11142;49.930;8.606;2023-04-10T03:08:26;100708.03;;;5.54;100.00
21956;BME280;11142;49.930;8.606;2023-04-10T03:10:56;100705.09;;;5.65;100.00
21956;BME280;11142;49.930;8.606;2023-04-10T03:13:24;100704.72;;;5.77;100.00
21956;BME280;11142;49.930;8.606;2023-04-10T03:15:52;100705.31;;;5.83;100.00
21956;BME280;11142;49.930;8.606;2023-04-10T03:18:21;100697.75;;;5.79;100.00
21956;BME280;11142;49.930;8.606;2023-04-10T03:20:52;100683.72;;;5.89;100.00
21956;BME280;11142;49.930;8.606;2023-04-10T03:23:21;100692.31;;;5.88;100.00
21956;BME280;11142;49.930;8.606;2023-04-10T03:25:49;100683.25;;;5.76;100.00
21956;BME280;11142;49.930;8.606;2023-04-10T03:28:20;100684.09;;;5.77;100.00
21956;BME280;11142;49.930;8.606;2023-04-10T03:30:48;100691.13;;;5.72;100.00
21956;BME280;11142;49.930;8.606;2023-04-10T03:33:17;100682.78;;;5.65;100.00
21956;BME280;11142;49.930;8.606;2023-04-10T03:35:45;100687.25;;;5.60;100.00
21956;BME280;11142;49.930;8.606;2023-04-10T03:38:14;100680.28;;;5.62;100.00
21956;BME280;11142;49.930;8.606;2023-04-10T03:40:42;100679.56;;;5.59;100.00
21956;BME280;11142;49.930;8.606;2023-04-10T03:43:11;100675.44;;;5.55;100.00
21956;BME280;11142;49.930;8.606;2023-04-10T03:45:39;100680.38;;;5.61;100.00
21956;BME280;11142;49.930;8.606;2023-04-10T03:48:07;100672.97;;;5.52;100.00
21956;BME280;11142;49.930;8.606;2023-04-10T03:50:42;100671.72;;;5.62;100.00
21956;BME280;11142;49.930;8.606;2023-04-10T03:53:10;100679.75;;;5.53;100.00
21956;BME280;11142;49.930;8.606;2023-04-10T03:55:40;100678.16;;;5.49;100.00
21956;BME280;11142;49.930;8.606;2023-04-10T03:58:08;100685.91;;;5.49;100.00
21956;BME280;11142;49.930;8.606;2023-04-10T04:00:36;100678.81;;;5.55;100.00
21956;BME280;11142;49.930;8.606;2023-04-10T04:03:11;100679.13;;;5.46;100.00
21956;BME280;11142;49.930;8.606;2023-04-10T04:06:00;100671.97;;;5.29;100.00
21956;BME280;11142;49.930;8.606;2023-04-10T04:08:31;100664.09;;;5.34;100.00
21956;BME280;11142;49.930;8.606;2023-04-10T04:11:23;100667.53;;;5.33;100.00
21956;BME280;11142;49.930;8.606;2023-04-10T04:14:04;100665.88;;;5.32;100.00
21956;BME280;11142;49.930;8.606;2023-04-10T04:16:45;100670.19;;;5.31;100.00
21956;BME280;11142;49.930;8.606;2023-04-10T04:19:42;100672.56;;;5.38;100.00
21956;BME280;11142;49.930;8.606;2023-04-10T04:22:20;100668.34;;;5.35;100.00
21956;BME280;11142;49.930;8.606;2023-04-10T04:25:04;100678.03;;;5.53;100.00
21956;BME280;11142;49.930;8.606;2023-04-10T04:28:02;100680.72;;;5.50;100.00
21956;BME280;11142;49.930;8.606;2023-04-10T04:30:34;100681.13;;;5.38;100.00
21956;BME280;11142;49.930;8.606;2023-04-10T04:33:09;100680.94;;;5.43;100.00
21956;BME280;11142;49.930;8.606;2023-04-10T04:35:56;100686.19;;;5.40;100.00
21956;BME280;11142;49.930;8.606;2023-04-10T04:38:36;100680.72;;;5.50;100.00
21956;BME280;11142;49.930;8.606;2023-04-10T04:41:24;100681.91;;;5.65;100.00
21956;BME280;11142;49.930;8.606;2023-04-10T04:44:05;100690.97;;;5.76;100.00
21956;BME280;11142;49.930;8.606;2023-04-10T04:46:55;100687.66;;;5.73;100.00
21956;BME280;11142;49.930;8.606;2023-04-10T04:49:49;100694.31;;;5.80;100.00
21956;BME280;11142;49.930;8.606;2023-04-10T04:52:20;100699.66;;;5.74;100.00
21956;BME280;11142;49.930;8.606;2023-04-10T04:55:15;100693.88;;;5.67;100.00
21956;BME280;11142;49.930;8.606;2023-04-10T04:57:57;100694.78;;;5.65;100.00
21956;BME280;11142;49.930;8.606;2023-04-10T05:00:52;100695.94;;;5.56;100.00
21956;BME280;11142;49.930;8.606;2023-04-10T05:03:48;100690.91;;;5.53;100.00
21956;BME280;11142;49.930;8.606;2023-04-10T05:06:35;100692.84;;;5.71;100.00
21956;BME280;11142;49.930;8.606;2023-04-10T05:09:21;100688.47;;;6.00;100.00
21956;BME280;11142;49.930;8.606;2023-04-10T05:12:08;100688.19;;;6.09;100.00
21956;BME280;11142;49.930;8.606;2023-04-10T05:14:51;100689.69;;;6.14;100.00
21956;BME280;11142;49.930;8.606;2023-04-10T05:17:26;100686.41;;;6.09;100.00
21956;BME280;11142;49.930;8.606;2023-04-10T05:20:18;100686.19;;;6.15;100.00
21956;BME280;11142;49.930;8.606;2023-04-10T05:23:06;100691.25;;;6.41;100.00
21956;BME280;11142;49.930;8.606;2023-04-10T05:25:56;100690.84;;;6.29;100.00
21956;BME280;11142;49.930;8.606;2023-04-10T05:28:43;100692.31;;;6.59;100.00
21956;BME280;11142;49.930;8.606;2023-04-10T05:31:30;100694.59;;;6.67;100.00
21956;BME280;11142;49.930;8.606;2023-04-10T05:34:36;100694.00;;;6.82;100.00
21956;BME280;11142;49.930;8.606;2023-04-10T05:37:25;100694.69;;;6.87;100.00
21956;BME280;11142;49.930;8.606;2023-04-10T05:40:01;100689.66;;;6.84;100.00
21956;BME280;11142;49.930;8.606;2023-04-10T05:42:30;100701.72;;;6.83;100.00
21956;BME280;11142;49.930;8.606;2023-04-10T05:45:10;100695.16;;;6.75;100.00
21956;BME280;11142;49.930;8.606;2023-04-10T05:48:03;100701.63;;;6.85;100.00
21956;BME280;11142;49.930;8.606;2023-04-10T05:50:43;100707.25;;;6.96;100.00
21956;BME280;11142;49.930;8.606;2023-04-10T05:53:34;100702.84;;;6.98;100.00
21956;BME280;11142;49.930;8.606;2023-04-10T05:56:20;100699.31;;;7.22;100.00
21956;BME280;11142;49.930;8.606;2023-04-10T05:59:08;100707.47;;;7.33;100.00
21956;BME280;11142;49.930;8.606;2023-04-10T06:01:56;100701.75;;;7.47;100.00
21956;BME280;11142;49.930;8.606;2023-04-10T06:04:25;100710.34;;;7.68;100.00
21956;BME280;11142;49.930;8.606;2023-04-10T06:06:57;100705.59;;;7.79;100.00
21956;BME280;11142;49.930;8.606;2023-04-10T06:09:26;100708.28;;;8.16;100.00
21956;BME280;11142;49.930;8.606;2023-04-10T06:11:55;100701.19;;;8.01;100.00
21956;BME280;11142;49.930;8.606;2023-04-10T06:14:24;100695.75;;;8.07;100.00
21956;BME280;11142;49.930;8.606;2023-04-10T06:16:55;100701.81;;;8.06;100.00
21956;BME280;11142;49.930;8.606;2023-04-10T06:19:24;100699.19;;;8.08;100.00
21956;BME280;11142;49.930;8.606;2023-04-10T06:21:52;100700.44;;;8.38;100.00
21956;BME280;11142;49.930;8.606;2023-04-10T06:24:22;100701.56;;;8.51;100.00
21956;BME280;11142;49.930;8.606;2023-04-10T06:26:54;100697.81;;;8.39;100.00
21956;BME280;11142;49.930;8.606;2023-04-10T06:29:23;100695.56;;;8.69;100.00
21956;BME280;11142;49.930;8.606;2023-04-10T06:31:51;100700.25;;;8.61;100.00
21956;BME280;11142;49.930;8.606;2023-04-10T06:34:19;100689.59;;;8.86;100.00
21956;BME280;11142;49.930;8.606;2023-04-10T06:36:55;100682.53;;;8.89;100.00
21956;BME280;11142;49.930;8.606;2023-04-10T06:39:25;100681.56;;;8.92;100.00
21956;BME280;11142;49.930;8.606;2023-04-10T06:41:53;100685.53;;;8.99;100.00
21956;BME280;11142;49.930;8.606;2023-04-10T06:44:38;100688.06;;;9.00;100.00
21956;BME280;11142;49.930;8.606;2023-04-10T06:47:07;100688.78;;;9.21;100.00
21956;BME280;11142;49.930;8.606;2023-04-10T06:49:36;100692.06;;;9.42;100.00
21956;BME280;11142;49.930;8.606;2023-04-10T06:52:04;100687.81;;;9.92;100.00
21956;BME280;11142;49.930;8.606;2023-04-10T06:54:33;100701.28;;;10.16;100.00
21956;BME280;11142;49.930;8.606;2023-04-10T06:57:02;100693.75;;;10.60;97.11
21956;BME280;11142;49.930;8.606;2023-04-10T06:59:31;100694.53;;;10.93;89.42
21956;BME280;11142;49.930;8.606;2023-04-10T07:02:01;100690.25;;;10.77;91.59
21956;BME280;11142;49.930;8.606;2023-04-10T07:04:30;100692.56;;;10.65;90.71
21956;BME280;11142;49.930;8.606;2023-04-10T07:06:58;100687.91;;;10.72;89.03
21956;BME280;11142;49.930;8.606;2023-04-10T07:09:26;100689.06;;;10.66;87.75
21956;BME280;11142;49.930;8.606;2023-04-10T07:11:55;100691.50;;;11.01;85.62
21956;BME280;11142;49.930;8.606;2023-04-10T07:14:23;100690.81;;;10.97;84.37
21956;BME280;11142;49.930;8.606;2023-04-10T07:16:51;100691.00;;;10.94;86.13
21956;BME280;11142;49.930;8.606;2023-04-10T07:19:20;100678.03;;;11.40;83.15
21956;BME280;11142;49.930;8.606;2023-04-10T07:21:48;100686.81;;;11.53;82.48
21956;BME280;11142;49.930;8.606;2023-04-10T07:24:16;100681.97;;;11.61;81.46
21956;BME280;11142;49.930;8.606;2023-04-10T07:26:45;100688.50;;;11.68;79.87
21956;BME280;11142;49.930;8.606;2023-04-10T07:29:14;100686.81;;;11.83;80.18
21956;BME280;11142;49.930;8.606;2023-04-10T07:31:43;100682.75;;;12.07;77.58
21956;BME280;11142;49.930;8.606;2023-04-10T07:34:11;100681.16;;;12.18;77.28
21956;BME280;11142;49.930;8.606;2023-04-10T07:36:39;100672.25;;;12.37;75.32
21956;BME280;11142;49.930;8.606;2023-04-10T07:39:07;100674.94;;;12.35;76.33
21956;BME280;11142;49.930;8.606;2023-04-10T07:41:35;100675.69;;;12.78;73.20
21956;BME280;11142;49.930;8.606;2023-04-10T07:44:03;100677.63;;;13.03;71.76
21956;BME280;11142;49.930;8.606;2023-04-10T07:46:32;100673.31;;;13.68;68.79
21956;BME280;11142;49.930;8.606;2023-04-10T07:49:00;100678.88;;;13.89;66.05
21956;BME280;11142;49.930;8.606;2023-04-10T07:51:28;100681.38;;;13.90;64.90
21956;BME280;11142;49.930;8.606;2023-04-10T07:53:56;100675.25;;;14.65;62.43
21956;BME280;11142;49.930;8.606;2023-04-10T07:56:24;100676.16;;;14.89;60.07
21956;BME280;11142;49.930;8.606;2023-04-10T07:58:51;100677.78;;;15.62;57.35
21956;BME280;11142;49.930;8.606;2023-04-10T08:01:19;100680.78;;;15.68;56.34
21956;BME280;11142;49.930;8.606;2023-04-10T08:03:49;100671.16;;;15.69;55.84
21956;BME280;11142;49.930;8.606;2023-04-10T08:06:17;100671.81;;;16.39;54.05
21956;BME280;11142;49.930;8.606;2023-04-10T08:08:46;100660.59;;;16.81;51.53
21956;BME280;11142;49.930;8.606;2023-04-10T08:11:21;100658.25;;;16.67;51.72
21956;BME280;11142;49.930;8.606;2023-04-10T08:13:50;100658.84;;;16.71;49.74
21956;BME280;11142;49.930;8.606;2023-04-10T08:16:19;100655.97;;;16.74;49.90
21956;BME280;11142;49.930;8.606;2023-04-10T08:18:48;100652.03;;;16.79;50.36
21956;BME280;11142;49.930;8.606;2023-04-10T08:21:17;100643.72;;;16.52;50.17
21956;BME280;11142;49.930;8.606;2023-04-10T08:23:46;100645.09;;;16.78;50.13
21956;BME280;11142;49.930;8.606;2023-04-10T08:26:13;100642.59;;;17.20;50.58
21956;BME280;11142;49.930;8.606;2023-04-10T08:28:42;100645.25;;;17.40;47.96
21956;BME280;11142;49.930;8.606;2023-04-10T08:31:12;100638.16;;;16.99;48.54
21956;BME280;11142;49.930;8.606;2023-04-10T08:33:40;100633.09;;;16.76;49.31
21956;BME280;11142;49.930;8.606;2023-04-10T08:36:10;100624.13;;;16.78;49.35
21956;BME280;11142;49.930;8.606;2023-04-10T08:38:44;100627.72;;;16.77;48.72
21956;BME280;11142;49.930;8.606;2023-04-10T08:41:12;100627.00;;;16.53;50.45
21956;BME280;11142;49.930;8.606;2023-04-10T08:43:41;100618.84;;;16.58;49.63
21956;BME280;11142;49.930;8.606;2023-04-10T08:46:11;100619.03;;;16.77;48.47
21956;BME280;11142;49.930;8.606;2023-04-10T08:48:42;100613.47;;;17.23;48.59
21956;BME280;11142;49.930;8.606;2023-04-10T08:51:15;100614.53;;;17.73;47.70
21956;BME280;11142;49.930;8.606;2023-04-10T08:53:47;100614.66;;;18.32;46.52
21956;BME280;11142;49.930;8.606;2023-04-10T08:56:17;100611.88;;;18.33;45.88
21956;BME280;11142;49.930;8.606;2023-04-10T08:58:45;100609.09;;;18.65;45.70
21956;BME280;11142;49.930;8.606;2023-04-10T09:01:13;100611.97;;;18.62;44.36
21956;BME280;11142;49.930;8.606;2023-04-10T09:03:41;100598.75;;;18.92;43.31
21956;BME280;11142;49.930;8.606;2023-04-10T09:06:09;100594.31;;;19.12;44.61
21956;BME280;11142;49.930;8.606;2023-04-10T09:08:39;100603.69;;;19.63;43.54
21956;BME280;11142;49.930;8.606;2023-04-10T09:11:06;100590.97;;;18.81;41.58
21956;BME280;11142;49.930;8.606;2023-04-10T09:13:35;100574.75;;;18.17;43.06
21956;BME280;11142;49.930;8.606;2023-04-10T09:16:03;100575.09;;;18.33;43.28
21956;BME280;11142;49.930;8.606;2023-04-10T09:18:42;100576.31;;;18.98;43.21
21956;BME280;11142;49.930;8.606;2023-04-10T09:21:11;100565.16;;;19.61;41.83
21956;BME280;11142;49.930;8.606;2023-04-10T09:23:42;100569.31;;;20.01;40.26
21956;BME280;11142;49.930;8.606;2023-04-10T09:26:24;100557.50;;;20.05;39.49
21956;BME280;11142;49.930;8.606;2023-04-10T09:28:56;100556.69;;;19.95;39.87
21956;BME280;11142;49.930;8.606;2023-04-10T09:31:31;100546.00;;;20.33;38.07
21956;BME280;11142;49.930;8.606;2023-04-10T09:34:06;100534.84;;;20.39;38.35
21956;BME280;11142;49.930;8.606;2023-04-10T09:36:34;100537.50;;;20.57;37.52
21956;BME280;11142;49.930;8.606;2023-04-10T09:39:04;100543.25;;;20.70;38.53
21956;BME280;11142;49.930;8.606;2023-04-10T09:41:32;100546.84;;;21.04;35.98
21956;BME280;11142;49.930;8.606;2023-04-10T09:44:06;100550.75;;;21.69;34.70
21956;BME280;11142;49.930;8.606;2023-04-10T09:46:34;100535.81;;;21.27;34.24
21956;BME280;11142;49.930;8.606;2023-04-10T09:49:02;100531.47;;;21.17;35.29
21956;BME280;11142;49.930;8.606;2023-04-10T09:51:34;100527.50;;;21.73;34.74
21956;BME280;11142;49.930;8.606;2023-04-10T09:54:03;100521.19;;;23.31;33.47
21956;BME280;11142;49.930;8.606;2023-04-10T09:56:32;100517.13;;;24.67;28.19
21956;BME280;11142;49.930;8.606;2023-04-10T09:59:03;100524.03;;;25.36;29.07
21956;BME280;11142;49.930;8.606;2023-04-10T10:01:33;100520.91;;;24.73;29.11
21956;BME280;11142;49.930;8.606;2023-04-10T10:04:02;100514.44;;;24.22;26.74
21956;BME280;11142;49.930;8.606;2023-04-10T10:06:31;100514.88;;;24.33;27.24
21956;BME280;11142;49.930;8.606;2023-04-10T10:09:00;100508.16;;;23.84;26.02
21956;BME280;11142;49.930;8.606;2023-04-10T10:11:32;100494.34;;;23.89;26.10
21956;BME280;11142;49.930;8.606;2023-04-10T10:14:01;100489.78;;;24.67;25.03
21956;BME280;11142;49.930;8.606;2023-04-10T10:16:32;100497.19;;;25.61;24.97
21956;BME280;11142;49.930;8.606;2023-04-10T10:19:03;100497.72;;;26.78;23.01
21956;BME280;11142;49.930;8.606;2023-04-10T10:21:33;100488.78;;;28.30;21.74
21956;BME280;11142;49.930;8.606;2023-04-10T10:24:02;100501.41;;;28.95;21.19
21956;BME280;11142;49.930;8.606;2023-04-10T10:26:36;100495.09;;;29.80;20.06
21956;BME280;11142;49.930;8.606;2023-04-10T10:29:06;100489.94;;;30.23;19.09
21956;BME280;11142;49.930;8.606;2023-04-10T10:31:36;100476.69;;;28.47;19.69
21956;BME280;11142;49.930;8.606;2023-04-10T10:34:05;100475.63;;;28.41;20.86
21956;BME280;11142;49.930;8.606;2023-04-10T10:36:35;100464.94;;;29.46;19.84
21956;BME280;11142;49.930;8.606;2023-04-10T10:39:07;100470.53;;;30.34;18.55
21956;BME280;11142;49.930;8.606;2023-04-10T10:41:42;100465.09;;;31.39;17.76
21956;BME280;11142;49.930;8.606;2023-04-10T10:44:12;100463.34;;;29.96;19.81
21956;BME280;11142;49.930;8.606;2023-04-10T10:46:44;100455.72;;;32.15;18.95
21956;BME280;11142;49.930;8.606;2023-04-10T10:49:13;100451.66;;;32.65;16.83
21956;BME280;11142;49.930;8.606;2023-04-10T10:51:42;100451.88;;;31.01;17.85
21956;BME280;11142;49.930;8.606;2023-04-10T10:54:32;100454.44;;;30.90;18.33
21956;BME280;11142;49.930;8.606;2023-04-10T10:57:02;100453.06;;;32.68;15.98
21956;BME280;11142;49.930;8.606;2023-04-10T11:02:19;100461.03;;;33.32;16.16
21956;BME280;11142;49.930;8.606;2023-04-10T11:04:48;100443.81;;;31.92;16.68
21956;BME280;11142;49.930;8.606;2023-04-10T11:07:16;100440.72;;;31.59;17.37
21956;BME280;11142;49.930;8.606;2023-04-10T11:09:48;100435.16;;;31.42;17.47
21956;BME280;11142;49.930;8.606;2023-04-10T11:12:20;100439.06;;;32.24;17.53
21956;BME280;11142;49.930;8.606;2023-04-10T11:14:58;100426.91;;;33.49;16.71
21956;BME280;11142;49.930;8.606;2023-04-10T11:17:45;100425.97;;;34.24;16.33
21956;BME280;11142;49.930;8.606;2023-04-10T11:20:14;100418.97;;;36.03;15.54
21956;BME280;11142;49.930;8.606;2023-04-10T11:28:26;100407.50;;;36.81;15.48
21956;BME280;11142;49.930;8.606;2023-04-10T11:31:12;100401.81;;;35.00;16.18
21956;BME280;11142;49.930;8.606;2023-04-10T11:33:40;100391.50;;;35.57;15.56
21956;BME280;11142;49.930;8.606;2023-04-10T11:36:12;100394.47;;;36.09;15.04
21956;BME280;11142;49.930;8.606;2023-04-10T11:38:52;100387.31;;;35.23;15.65
21956;BME280;11142;49.930;8.606;2023-04-10T11:41:20;100392.75;;;35.50;16.45
21956;BME280;11142;49.930;8.606;2023-04-10T11:43:54;100378.00;;;33.81;15.92
21956;BME280;11142;49.930;8.606;2023-04-10T11:46:22;100385.25;;;32.66;16.99
21956;BME280;11142;49.930;8.606;2023-04-10T11:48:53;100373.53;;;31.95;17.33
21956;BME280;11142;49.930;8.606;2023-04-10T11:51:22;100359.63;;;31.21;17.62
21956;BME280;11142;49.930;8.606;2023-04-10T11:54:02;100360.44;;;30.85;18.75
21956;BME280;11142;49.930;8.606;2023-04-10T11:56:30;100352.41;;;31.39;17.30
21956;BME280;11142;49.930;8.606;2023-04-10T11:59:00;100348.44;;;31.42;17.95
21956;BME280;11142;49.930;8.606;2023-04-10T12:01:33;100350.88;;;32.56;17.21
21956;BME280;11142;49.930;8.606;2023-04-10T12:04:02;100347.59;;;32.42;17.57
21956;BME280;11142;49.930;8.606;2023-04-10T12:06:30;100339.00;;;31.39;17.64
21956;BME280;11142;49.930;8.606;2023-04-10T12:08:58;100343.97;;;31.54;17.73
21956;BME280;11142;49.930;8.606;2023-04-10T12:11:26;100338.06;;;30.30;18.51
21956;BME280;11142;49.930;8.606;2023-04-10T12:13:55;100327.75;;;28.36;19.41
21956;BME280;11142;49.930;8.606;2023-04-10T12:16:25;100323.44;;;28.09;20.19
21956;BME280;11142;49.930;8.606;2023-04-10T12:18:53;100327.09;;;28.80;19.93
21956;BME280;11142;49.930;8.606;2023-04-10T12:21:22;100323.25;;;30.27;18.69
21956;BME280;11142;49.930;8.606;2023-04-10T12:23:52;100318.75;;;31.85;18.41
21956;BME280;11142;49.930;8.606;2023-04-10T12:26:20;100332.97;;;32.96;17.40
21956;BME280;11142;49.930;8.606;2023-04-10T12:28:49;100321.63;;;32.83;17.02
21956;BME280;11142;49.930;8.606;2023-04-10T12:31:17;100312.06;;;32.17;17.68
21956;BME280;11142;49.930;8.606;2023-04-10T12:33:47;100313.16;;;30.90;18.87
21956;BME280;11142;49.930;8.606;2023-04-10T12:36:18;100316.66;;;31.87;17.91
21956;BME280;11142;49.930;8.606;2023-04-10T12:38:46;100318.69;;;34.42;16.91
21956;BME280;11142;49.930;8.606;2023-04-10T12:41:19;100311.81;;;33.85;16.54
21956;BME280;11142;49.930;8.606;2023-04-10T12:43:47;100312.88;;;32.52;17.82
21956;BME280;11142;49.930;8.606;2023-04-10T12:46:21;100302.19;;;33.44;15.96
21956;BME280;11142;49.930;8.606;2023-04-10T12:48:51;100293.88;;;33.17;16.56
21956;BME280;11142;49.930;8.606;2023-04-10T12:51:19;100293.16;;;32.24;17.46
21956;BME280;11142;49.930;8.606;2023-04-10T12:54:07;100295.09;;;31.52;18.01
21956;BME280;11142;49.930;8.606;2023-04-10T12:56:41;100296.03;;;31.57;18.20
21956;BME280;11142;49.930;8.606;2023-04-10T12:59:10;100284.06;;;31.24;17.79
21956;BME280;11142;49.930;8.606;2023-04-10T13:01:38;100273.94;;;30.10;18.97
21956;BME280;11142;49.930;8.606;2023-04-10T13:04:07;100278.47;;;30.34;19.25
21956;BME280;11142;49.930;8.606;2023-04-10T13:06:41;100277.84;;;31.59;18.54
21956;BME280;11142;49.930;8.606;2023-04-10T13:09:09;100269.72;;;31.18;17.90
21956;BME280;11142;49.930;8.606;2023-04-10T13:11:37;100273.00;;;31.80;17.87
21956;BME280;11142;49.930;8.606;2023-04-10T13:14:06;100266.88;;;31.43;18.17
21956;BME280;11142;49.930;8.606;2023-04-10T13:16:34;100256.44;;;30.75;19.18
21956;BME280;11142;49.930;8.606;2023-04-10T13:19:02;100250.53;;;31.03;19.17
21956;BME280;11142;49.930;8.606;2023-04-10T13:21:31;100248.63;;;30.31;19.51
21956;BME280;11142;49.930;8.606;2023-04-10T13:23:59;100244.72;;;30.51;19.92
21956;BME280;11142;49.930;8.606;2023-04-10T13:26:27;100235.09;;;30.01;19.28